sensor_id;sensor_type;location;lat;lon;timestamp;P1;durP1;ratioP1;P2;durP2;ratioP2
84523;SDS011;74765;44.538;18.668;2024-01-30T00:01:55;233.18;;;92.25;;
84523;SDS011;74765;44.538;18.668;2024-01-30T00:04:21;229.13;;;90.75;;
84523;SDS011;74765;44.538;18.668;2024-01-30T00:06:46;227.98;;;91.00;;
84523;SDS011;74765;44.538;18.668;2024-01-30T00:09:12;215.70;;;85.32;;
84523;SDS011;74765;44.538;18.668;2024-01-30T00:11:38;216.63;;;83.93;;
84523;SDS011;74765;44.538;18.668;2024-01-30T00:14:04;201.27;;;81.35;;
84523;SDS011;74765;44.538;18.668;2024-01-30T00:16:30;201.32;;;80.47;;
84523;SDS011;74765;44.538;18.668;2024-01-30T00:18:56;256.90;;;95.65;;
84523;SDS011;74765;44.538;18.668;2024-01-30T00:21:22;238.98;;;88.38;;
84523;SDS011;74765;44.538;18.668;2024-01-30T00:23:48;234.52;;;90.15;;
84523;SDS011;74765;44.538;18.668;2024-01-30T00:26:14;215.30;;;83.38;;
84523;SDS011;74765;44.538;18.668;2024-01-30T00:28:41;188.75;;;77.07;;
84523;SDS011;74765;44.538;18.668;2024-01-30T00:31:07;212.00;;;84.60;;
84523;SDS011;74765;44.538;18.668;2024-01-30T00:33:33;207.52;;;82.50;;
84523;SDS011;74765;44.538;18.668;2024-01-30T00:35:59;205.07;;;80.90;;
84523;SDS011;74765;44.538;18.668;2024-01-30T00:38:24;207.13;;;76.30;;
84523;SDS011;74765;44.538;18.668;2024-01-30T00:40:50;191.70;;;72.57;;
84523;SDS011;74765;44.538;18.668;2024-01-30T00:43:16;207.93;;;79.13;;
84523;SDS011;74765;44.538;18.668;2024-01-30T00:45:44;213.05;;;79.70;;
84523;SDS011;74765;44.538;18.668;2024-01-30T00:48:10;194.20;;;78.75;;
84523;SDS011;74765;44.538;18.668;2024-01-30T00:50:36;208.18;;;76.20;;
84523;SDS011;74765;44.538;18.668;2024-01-30T00:53:01;206.13;;;73.03;;
84523;SDS011;74765;44.538;18.668;2024-01-30T00:55:27;200.73;;;73.65;;
84523;SDS011;74765;44.538;18.668;2024-01-30T00:57:53;190.20;;;68.75;;
84523;SDS011;74765;44.538;18.668;2024-01-30T01:00:19;180.63;;;70.50;;
84523;SDS011;74765;44.538;18.668;2024-01-30T01:02:46;157.23;;;62.80;;
84523;SDS011;74765;44.538;18.668;2024-01-30T01:05:12;181.13;;;67.95;;
84523;SDS011;74765;44.538;18.668;2024-01-30T01:07:38;187.43;;;71.43;;
84523;SDS011;74765;44.538;18.668;2024-01-30T01:10:05;173.38;;;70.75;;
84523;SDS011;74765;44.538;18.668;2024-01-30T01:12:31;205.38;;;79.85;;
84523;SDS011;74765;44.538;18.668;2024-01-30T01:14:57;230.15;;;83.75;;
84523;SDS011;74765;44.538;18.668;2024-01-30T01:17:23;219.88;;;87.68;;
84523;SDS011;74765;44.538;18.668;2024-01-30T01:19:48;250.90;;;95.00;;
84523;SDS011;74765;44.538;18.668;2024-01-30T01:22:15;237.20;;;90.32;;
84523;SDS011;74765;44.538;18.668;2024-01-30T01:24:42;242.75;;;97.72;;
84523;SDS011;74765;44.538;18.668;2024-01-30T01:27:08;234.07;;;95.53;;
84523;SDS011;74765;44.538;18.668;2024-01-30T01:29:33;231.75;;;87.63;;
84523;SDS011;74765;44.538;18.668;2024-01-30T01:31:59;199.88;;;79.45;;
84523;SDS011;74765;44.538;18.668;2024-01-30T01:34:25;206.07;;;79.32;;
84523;SDS011;74765;44.538;18.668;2024-01-30T01:36:51;205.32;;;76.95;;
84523;SDS011;74765;44.538;18.668;2024-01-30T01:39:20;181.35;;;73.25;;
84523;SDS011;74765;44.538;18.668;2024-01-30T01:41:49;174.73;;;71.97;;
84523;SDS011;74765;44.538;18.668;2024-01-30T01:44:14;182.38;;;74.55;;
84523;SDS011;74765;44.538;18.668;2024-01-30T01:46:40;153.68;;;64.63;;
84523;SDS011;74765;44.538;18.668;2024-01-30T01:49:06;141.25;;;61.25;;
84523;SDS011;74765;44.538;18.668;2024-01-30T01:51:33;169.98;;;68.95;;
84523;SDS011;74765;44.538;18.668;2024-01-30T01:54:04;167.73;;;67.75;;
84523;SDS011;74765;44.538;18.668;2024-01-30T01:56:31;148.02;;;61.55;;
84523;SDS011;74765;44.538;18.668;2024-01-30T01:58:59;162.55;;;67.25;;
84523;SDS011;74765;44.538;18.668;2024-01-30T02:01:29;153.73;;;66.38;;
84523;SDS011;74765;44.538;18.668;2024-01-30T02:03:58;162.02;;;65.50;;
84523;SDS011;74765;44.538;18.668;2024-01-30T02:06:24;176.38;;;66.82;;
84523;SDS011;74765;44.538;18.668;2024-01-30T02:08:51;166.40;;;69.55;;
84523;SDS011;74765;44.538;18.668;2024-01-30T02:11:17;164.00;;;67.55;;
84523;SDS011;74765;44.538;18.668;2024-01-30T02:13:43;150.57;;;63.33;;
84523;SDS011;74765;44.538;18.668;2024-01-30T02:16:09;154.38;;;60.90;;
84523;SDS011;74765;44.538;18.668;2024-01-30T02:18:35;147.40;;;64.13;;
84523;SDS011;74765;44.538;18.668;2024-01-30T02:21:07;144.93;;;60.95;;
84523;SDS011;74765;44.538;18.668;2024-01-30T02:23:33;151.18;;;62.35;;
84523;SDS011;74765;44.538;18.668;2024-01-30T02:25:59;150.88;;;61.05;;
84523;SDS011;74765;44.538;18.668;2024-01-30T02:28:25;141.82;;;61.70;;
84523;SDS011;74765;44.538;18.668;2024-01-30T02:30:52;153.30;;;59.65;;
84523;SDS011;74765;44.538;18.668;2024-01-30T02:33:18;163.38;;;63.63;;
84523;SDS011;74765;44.538;18.668;2024-01-30T02:35:44;135.63;;;56.92;;
84523;SDS011;74765;44.538;18.668;2024-01-30T02:38:10;137.80;;;55.05;;
84523;SDS011;74765;44.538;18.668;2024-01-30T02:40:36;157.48;;;59.72;;
84523;SDS011;74765;44.538;18.668;2024-01-30T02:43:02;145.00;;;56.13;;
84523;SDS011;74765;44.538;18.668;2024-01-30T02:45:28;138.98;;;56.72;;
84523;SDS011;74765;44.538;18.668;2024-01-30T02:47:54;127.63;;;53.10;;
84523;SDS011;74765;44.538;18.668;2024-01-30T02:50:20;124.00;;;50.03;;
84523;SDS011;74765;44.538;18.668;2024-01-30T02:52:45;132.65;;;55.05;;
84523;SDS011;74765;44.538;18.668;2024-01-30T02:55:11;130.25;;;50.75;;
84523;SDS011;74765;44.538;18.668;2024-01-30T02:57:38;150.98;;;59.65;;
84523;SDS011;74765;44.538;18.668;2024-01-30T03:00:04;121.13;;;50.28;;
84523;SDS011;74765;44.538;18.668;2024-01-30T03:02:32;135.32;;;53.17;;
84523;SDS011;74765;44.538;18.668;2024-01-30T03:04:58;130.70;;;53.03;;
84523;SDS011;74765;44.538;18.668;2024-01-30T03:07:24;139.23;;;55.63;;
84523;SDS011;74765;44.538;18.668;2024-01-30T03:09:50;145.60;;;57.97;;
84523;SDS011;74765;44.538;18.668;2024-01-30T03:12:16;145.05;;;59.03;;
84523;SDS011;74765;44.538;18.668;2024-01-30T03:14:41;151.75;;;59.30;;
84523;SDS011;74765;44.538;18.668;2024-01-30T03:17:07;134.25;;;55.50;;
84523;SDS011;74765;44.538;18.668;2024-01-30T03:19:33;126.35;;;54.72;;
84523;SDS011;74765;44.538;18.668;2024-01-30T03:21:59;120.45;;;51.22;;
84523;SDS011;74765;44.538;18.668;2024-01-30T03:24:25;129.75;;;50.65;;
84523;SDS011;74765;44.538;18.668;2024-01-30T03:26:50;123.15;;;50.85;;
84523;SDS011;74765;44.538;18.668;2024-01-30T03:29:16;125.68;;;53.20;;
84523;SDS011;74765;44.538;18.668;2024-01-30T03:31:42;116.45;;;50.13;;
84523;SDS011;74765;44.538;18.668;2024-01-30T03:34:07;115.20;;;47.85;;
84523;SDS011;74765;44.538;18.668;2024-01-30T03:36:33;136.15;;;54.65;;
84523;SDS011;74765;44.538;18.668;2024-01-30T03:39:00;108.40;;;45.53;;
84523;SDS011;74765;44.538;18.668;2024-01-30T03:41:26;119.75;;;46.50;;
84523;SDS011;74765;44.538;18.668;2024-01-30T03:43:52;111.35;;;47.13;;
84523;SDS011;74765;44.538;18.668;2024-01-30T03:46:17;108.53;;;45.97;;
84523;SDS011;74765;44.538;18.668;2024-01-30T03:48:44;103.88;;;45.75;;
84523;SDS011;74765;44.538;18.668;2024-01-30T03:51:10;99.82;;;42.53;;
84523;SDS011;74765;44.538;18.668;2024-01-30T03:53:42;98.13;;;42.30;;
84523;SDS011;74765;44.538;18.668;2024-01-30T03:56:09;108.78;;;43.85;;
84523;SDS011;74765;44.538;18.668;2024-01-30T03:58:35;101.63;;;41.35;;
84523;SDS011;74765;44.538;18.668;2024-01-30T04:01:01;103.45;;;43.33;;
84523;SDS011;74765;44.538;18.668;2024-01-30T04:03:27;97.80;;;42.20;;
84523;SDS011;74765;44.538;18.668;2024-01-30T04:05:52;93.10;;;40.55;;
84523;SDS011;74765;44.538;18.668;2024-01-30T04:08:18;89.45;;;41.50;;
84523;SDS011;74765;44.538;18.668;2024-01-30T04:10:44;98.68;;;42.85;;
84523;SDS011;74765;44.538;18.668;2024-01-30T04:13:10;91.88;;;37.03;;
84523;SDS011;74765;44.538;18.668;2024-01-30T04:15:36;79.35;;;34.00;;
84523;SDS011;74765;44.538;18.668;2024-01-30T04:18:02;63.65;;;29.83;;
84523;SDS011;74765;44.538;18.668;2024-01-30T04:20:28;66.65;;;28.65;;
84523;SDS011;74765;44.538;18.668;2024-01-30T04:22:55;69.70;;;29.17;;
84523;SDS011;74765;44.538;18.668;2024-01-30T04:25:21;67.70;;;31.08;;
84523;SDS011;74765;44.538;18.668;2024-01-30T04:27:47;77.97;;;35.40;;
84523;SDS011;74765;44.538;18.668;2024-01-30T04:30:13;82.07;;;34.28;;
84523;SDS011;74765;44.538;18.668;2024-01-30T04:32:39;81.60;;;35.30;;
84523;SDS011;74765;44.538;18.668;2024-01-30T04:35:05;102.07;;;40.67;;
84523;SDS011;74765;44.538;18.668;2024-01-30T04:37:31;102.05;;;39.40;;
84523;SDS011;74765;44.538;18.668;2024-01-30T04:39:56;91.78;;;37.10;;
84523;SDS011;74765;44.538;18.668;2024-01-30T04:42:22;89.10;;;35.97;;
84523;SDS011;74765;44.538;18.668;2024-01-30T04:44:48;87.68;;;35.97;;
84523;SDS011;74765;44.538;18.668;2024-01-30T04:47:14;79.10;;;31.38;;
84523;SDS011;74765;44.538;18.668;2024-01-30T04:49:40;92.70;;;38.00;;
84523;SDS011;74765;44.538;18.668;2024-01-30T04:52:07;101.07;;;40.58;;
84523;SDS011;74765;44.538;18.668;2024-01-30T04:54:34;114.97;;;47.55;;
84523;SDS011;74765;44.538;18.668;2024-01-30T04:57:00;112.35;;;44.65;;
84523;SDS011;74765;44.538;18.668;2024-01-30T04:59:26;114.18;;;47.15;;
84523;SDS011;74765;44.538;18.668;2024-01-30T05:01:52;117.65;;;47.78;;
84523;SDS011;74765;44.538;18.668;2024-01-30T05:04:18;131.27;;;51.35;;
84523;SDS011;74765;44.538;18.668;2024-01-30T05:06:44;137.70;;;52.47;;
84523;SDS011;74765;44.538;18.668;2024-01-30T05:09:10;156.88;;;60.22;;
84523;SDS011;74765;44.538;18.668;2024-01-30T05:11:39;119.95;;;49.17;;
84523;SDS011;74765;44.538;18.668;2024-01-30T05:14:05;125.73;;;48.17;;
84523;SDS011;74765;44.538;18.668;2024-01-30T05:16:32;115.10;;;48.78;;
84523;SDS011;74765;44.538;18.668;2024-01-30T05:18:57;124.20;;;47.08;;
84523;SDS011;74765;44.538;18.668;2024-01-30T05:21:23;108.47;;;43.75;;
84523;SDS011;74765;44.538;18.668;2024-01-30T05:23:49;110.10;;;47.08;;
84523;SDS011;74765;44.538;18.668;2024-01-30T05:26:15;113.38;;;45.42;;
84523;SDS011;74765;44.538;18.668;2024-01-30T05:28:40;119.00;;;47.40;;
84523;SDS011;74765;44.538;18.668;2024-01-30T05:31:06;131.93;;;54.50;;
84523;SDS011;74765;44.538;18.668;2024-01-30T05:33:32;115.65;;;47.17;;
84523;SDS011;74765;44.538;18.668;2024-01-30T05:35:58;131.30;;;52.45;;
84523;SDS011;74765;44.538;18.668;2024-01-30T05:38:23;112.47;;;44.65;;
84523;SDS011;74765;44.538;18.668;2024-01-30T05:40:49;114.80;;;46.10;;
84523;SDS011;74765;44.538;18.668;2024-01-30T05:43:15;105.70;;;44.80;;
84523;SDS011;74765;44.538;18.668;2024-01-30T05:45:40;113.60;;;47.05;;
84523;SDS011;74765;44.538;18.668;2024-01-30T05:48:06;110.00;;;43.50;;
84523;SDS011;74765;44.538;18.668;2024-01-30T05:50:32;133.45;;;50.38;;
84523;SDS011;74765;44.538;18.668;2024-01-30T05:52:58;126.85;;;49.85;;
84523;SDS011;74765;44.538;18.668;2024-01-30T05:55:23;137.75;;;51.03;;
84523;SDS011;74765;44.538;18.668;2024-01-30T05:57:49;139.85;;;52.00;;
84523;SDS011;74765;44.538;18.668;2024-01-30T06:00:16;131.63;;;50.30;;
84523;SDS011;74765;44.538;18.668;2024-01-30T06:02:42;128.13;;;48.65;;
84523;SDS011;74765;44.538;18.668;2024-01-30T06:05:08;110.07;;;46.42;;
84523;SDS011;74765;44.538;18.668;2024-01-30T06:07:34;121.18;;;49.10;;
84523;SDS011;74765;44.538;18.668;2024-01-30T06:09:59;113.55;;;47.42;;
84523;SDS011;74765;44.538;18.668;2024-01-30T06:12:27;126.53;;;49.10;;
84523;SDS011;74765;44.538;18.668;2024-01-30T06:14:53;121.28;;;49.67;;
84523;SDS011;74765;44.538;18.668;2024-01-30T06:17:22;119.18;;;49.53;;
84523;SDS011;74765;44.538;18.668;2024-01-30T06:19:48;125.75;;;52.28;;
84523;SDS011;74765;44.538;18.668;2024-01-30T06:22:14;127.25;;;53.15;;
84523;SDS011;74765;44.538;18.668;2024-01-30T06:24:41;129.10;;;46.10;;
84523;SDS011;74765;44.538;18.668;2024-01-30T06:27:07;131.43;;;55.72;;
84523;SDS011;74765;44.538;18.668;2024-01-30T06:29:33;160.38;;;64.85;;
84523;SDS011;74765;44.538;18.668;2024-01-30T06:31:59;154.77;;;60.65;;
84523;SDS011;74765;44.538;18.668;2024-01-30T06:34:25;165.40;;;66.28;;
84523;SDS011;74765;44.538;18.668;2024-01-30T06:36:51;157.35;;;60.50;;
84523;SDS011;74765;44.538;18.668;2024-01-30T06:39:17;134.73;;;53.25;;
84523;SDS011;74765;44.538;18.668;2024-01-30T06:41:43;146.38;;;57.33;;
84523;SDS011;74765;44.538;18.668;2024-01-30T06:44:11;152.05;;;60.85;;
84523;SDS011;74765;44.538;18.668;2024-01-30T06:46:38;124.40;;;51.78;;
84523;SDS011;74765;44.538;18.668;2024-01-30T06:49:03;116.13;;;49.05;;
84523;SDS011;74765;44.538;18.668;2024-01-30T06:51:29;120.72;;;51.47;;
84523;SDS011;74765;44.538;18.668;2024-01-30T06:53:58;117.57;;;49.67;;
84523;SDS011;74765;44.538;18.668;2024-01-30T06:56:24;111.05;;;48.13;;
84523;SDS011;74765;44.538;18.668;2024-01-30T06:58:50;127.03;;;53.03;;
84523;SDS011;74765;44.538;18.668;2024-01-30T07:01:16;134.20;;;59.60;;
84523;SDS011;74765;44.538;18.668;2024-01-30T07:03:42;137.20;;;59.60;;
84523;SDS011;74765;44.538;18.668;2024-01-30T07:06:09;129.23;;;57.67;;
84523;SDS011;74765;44.538;18.668;2024-01-30T07:08:36;118.80;;;54.15;;
84523;SDS011;74765;44.538;18.668;2024-01-30T07:11:06;117.57;;;55.78;;
84523;SDS011;74765;44.538;18.668;2024-01-30T07:13:33;96.85;;;46.35;;
84523;SDS011;74765;44.538;18.668;2024-01-30T07:15:59;82.35;;;40.58;;
84523;SDS011;74765;44.538;18.668;2024-01-30T07:18:25;90.72;;;43.58;;
84523;SDS011;74765;44.538;18.668;2024-01-30T07:20:51;101.25;;;50.67;;
84523;SDS011;74765;44.538;18.668;2024-01-30T07:23:17;99.03;;;46.03;;
84523;SDS011;74765;44.538;18.668;2024-01-30T07:25:43;113.13;;;53.35;;
84523;SDS011;74765;44.538;18.668;2024-01-30T07:28:10;111.75;;;51.42;;
84523;SDS011;74765;44.538;18.668;2024-01-30T07:30:37;103.45;;;51.25;;
84523;SDS011;74765;44.538;18.668;2024-01-30T07:33:03;128.00;;;57.97;;
84523;SDS011;74765;44.538;18.668;2024-01-30T07:35:30;104.10;;;48.90;;
84523;SDS011;74765;44.538;18.668;2024-01-30T07:37:55;112.88;;;54.05;;
84523;SDS011;74765;44.538;18.668;2024-01-30T07:40:22;99.70;;;50.05;;
84523;SDS011;74765;44.538;18.668;2024-01-30T07:42:49;98.28;;;51.22;;
84523;SDS011;74765;44.538;18.668;2024-01-30T07:45:14;104.05;;;49.83;;
84523;SDS011;74765;44.538;18.668;2024-01-30T07:47:40;107.07;;;53.95;;
84523;SDS011;74765;44.538;18.668;2024-01-30T07:50:07;105.38;;;53.17;;
84523;SDS011;74765;44.538;18.668;2024-01-30T07:52:34;108.70;;;56.63;;
84523;SDS011;74765;44.538;18.668;2024-01-30T07:55:00;104.55;;;53.67;;
84523;SDS011;74765;44.538;18.668;2024-01-30T07:57:26;114.13;;;58.65;;
84523;SDS011;74765;44.538;18.668;2024-01-30T07:59:52;125.20;;;64.95;;
84523;SDS011;74765;44.538;18.668;2024-01-30T08:02:17;114.45;;;61.50;;
84523;SDS011;74765;44.538;18.668;2024-01-30T08:04:43;393.13;;;208.23;;
84523;SDS011;74765;44.538;18.668;2024-01-30T08:07:13;467.45;;;251.73;;
84523;SDS011;74765;44.538;18.668;2024-01-30T08:09:39;480.23;;;261.65;;
84523;SDS011;74765;44.538;18.668;2024-01-30T08:12:05;475.98;;;252.45;;
84523;SDS011;74765;44.538;18.668;2024-01-30T08:14:31;421.20;;;216.77;;
84523;SDS011;74765;44.538;18.668;2024-01-30T08:16:57;399.00;;;205.70;;
84523;SDS011;74765;44.538;18.668;2024-01-30T08:19:23;352.38;;;187.98;;
84523;SDS011;74765;44.538;18.668;2024-01-30T08:21:49;300.30;;;146.48;;
84523;SDS011;74765;44.538;18.668;2024-01-30T08:24:15;304.30;;;149.45;;
84523;SDS011;74765;44.538;18.668;2024-01-30T08:26:41;297.33;;;149.35;;
84523;SDS011;74765;44.538;18.668;2024-01-30T08:29:06;266.60;;;131.77;;
84523;SDS011;74765;44.538;18.668;2024-01-30T08:31:32;332.48;;;162.38;;
84523;SDS011;74765;44.538;18.668;2024-01-30T08:33:58;300.58;;;144.65;;
84523;SDS011;74765;44.538;18.668;2024-01-30T08:36:24;360.40;;;180.43;;
84523;SDS011;74765;44.538;18.668;2024-01-30T08:38:50;338.77;;;172.38;;
84523;SDS011;74765;44.538;18.668;2024-01-30T08:41:16;368.48;;;181.48;;
84523;SDS011;74765;44.538;18.668;2024-01-30T08:43:43;388.85;;;189.70;;
84523;SDS011;74765;44.538;18.668;2024-01-30T08:46:12;373.00;;;177.48;;
84523;SDS011;74765;44.538;18.668;2024-01-30T08:48:41;344.30;;;167.15;;
84523;SDS011;74765;44.538;18.668;2024-01-30T08:51:10;310.30;;;141.30;;
84523;SDS011;74765;44.538;18.668;2024-01-30T08:53:36;250.45;;;120.53;;
84523;SDS011;74765;44.538;18.668;2024-01-30T08:56:05;244.43;;;127.55;;
84523;SDS011;74765;44.538;18.668;2024-01-30T09:00:58;242.57;;;120.95;;
84523;SDS011;74765;44.538;18.668;2024-01-30T09:03:24;212.90;;;102.68;;
84523;SDS011;74765;44.538;18.668;2024-01-30T09:05:49;233.27;;;120.75;;
84523;SDS011;74765;44.538;18.668;2024-01-30T09:08:15;230.55;;;116.05;;
84523;SDS011;74765;44.538;18.668;2024-01-30T09:10:41;137.55;;;73.38;;
84523;SDS011;74765;44.538;18.668;2024-01-30T09:13:07;147.93;;;76.57;;
84523;SDS011;74765;44.538;18.668;2024-01-30T09:15:33;116.13;;;61.10;;
84523;SDS011;74765;44.538;18.668;2024-01-30T09:18:01;158.20;;;84.32;;
84523;SDS011;74765;44.538;18.668;2024-01-30T09:20:30;246.18;;;120.90;;
84523;SDS011;74765;44.538;18.668;2024-01-30T09:22:56;282.58;;;136.20;;
84523;SDS011;74765;44.538;18.668;2024-01-30T09:25:21;242.57;;;119.50;;
84523;SDS011;74765;44.538;18.668;2024-01-30T09:27:47;215.77;;;102.90;;
84523;SDS011;74765;44.538;18.668;2024-01-30T09:30:13;164.82;;;84.30;;
84523;SDS011;74765;44.538;18.668;2024-01-30T09:32:43;179.60;;;90.72;;
84523;SDS011;74765;44.538;18.668;2024-01-30T09:35:09;178.95;;;89.68;;
84523;SDS011;74765;44.538;18.668;2024-01-30T09:37:38;181.73;;;88.97;;
84523;SDS011;74765;44.538;18.668;2024-01-30T09:40:04;162.48;;;82.97;;
84523;SDS011;74765;44.538;18.668;2024-01-30T09:42:34;187.13;;;97.95;;
84523;SDS011;74765;44.538;18.668;2024-01-30T09:45:01;211.57;;;102.70;;
84523;SDS011;74765;44.538;18.668;2024-01-30T09:47:38;190.90;;;97.82;;
84523;SDS011;74765;44.538;18.668;2024-01-30T09:50:10;192.32;;;95.07;;
84523;SDS011;74765;44.538;18.668;2024-01-30T09:52:40;179.35;;;95.50;;
84523;SDS011;74765;44.538;18.668;2024-01-30T09:55:15;175.48;;;89.53;;
84523;SDS011;74765;44.538;18.668;2024-01-30T09:57:41;199.73;;;98.78;;
84523;SDS011;74765;44.538;18.668;2024-01-30T10:00:07;182.02;;;91.78;;
84523;SDS011;74765;44.538;18.668;2024-01-30T10:02:50;187.68;;;94.38;;
84523;SDS011;74765;44.538;18.668;2024-01-30T10:05:18;230.35;;;107.28;;
84523;SDS011;74765;44.538;18.668;2024-01-30T10:07:55;207.13;;;99.07;;
84523;SDS011;74765;44.538;18.668;2024-01-30T10:10:24;227.97;;;106.67;;
84523;SDS011;74765;44.538;18.668;2024-01-30T10:12:53;180.63;;;87.28;;
84523;SDS011;74765;44.538;18.668;2024-01-30T10:15:19;146.30;;;75.50;;
84523;SDS011;74765;44.538;18.668;2024-01-30T10:17:45;148.50;;;68.22;;
84523;SDS011;74765;44.538;18.668;2024-01-30T10:20:12;131.88;;;68.88;;
84523;SDS011;74765;44.538;18.668;2024-01-30T10:22:39;117.50;;;61.40;;
84523;SDS011;74765;44.538;18.668;2024-01-30T10:25:11;118.60;;;63.38;;
84523;SDS011;74765;44.538;18.668;2024-01-30T10:27:39;129.93;;;66.32;;
84523;SDS011;74765;44.538;18.668;2024-01-30T10:30:05;125.97;;;61.85;;
84523;SDS011;74765;44.538;18.668;2024-01-30T10:32:32;118.40;;;58.15;;
84523;SDS011;74765;44.538;18.668;2024-01-30T10:34:57;110.28;;;53.80;;
84523;SDS011;74765;44.538;18.668;2024-01-30T10:37:24;108.70;;;54.90;;
84523;SDS011;74765;44.538;18.668;2024-01-30T10:39:52;97.88;;;52.72;;
84523;SDS011;74765;44.538;18.668;2024-01-30T10:42:20;100.43;;;50.63;;
84523;SDS011;74765;44.538;18.668;2024-01-30T10:45:11;110.65;;;54.78;;
84523;SDS011;74765;44.538;18.668;2024-01-30T10:47:52;97.13;;;52.88;;
84523;SDS011;74765;44.538;18.668;2024-01-30T10:50:22;78.05;;;41.92;;
84523;SDS011;74765;44.538;18.668;2024-01-30T10:52:50;81.25;;;44.30;;
84523;SDS011;74765;44.538;18.668;2024-01-30T10:55:16;61.88;;;32.97;;
84523;SDS011;74765;44.538;18.668;2024-01-30T10:57:43;86.10;;;40.58;;
84523;SDS011;74765;44.538;18.668;2024-01-30T11:00:10;93.13;;;44.95;;
84523;SDS011;74765;44.538;18.668;2024-01-30T11:02:38;60.00;;;33.53;;
84523;SDS011;74765;44.538;18.668;2024-01-30T11:05:07;66.60;;;35.23;;
84523;SDS011;74765;44.538;18.668;2024-01-30T11:07:34;61.90;;;34.08;;
84523;SDS011;74765;44.538;18.668;2024-01-30T11:12:27;34.33;;;18.77;;
84523;SDS011;74765;44.538;18.668;2024-01-30T11:15:12;41.47;;;21.73;;
84523;SDS011;74765;44.538;18.668;2024-01-30T11:22:46;55.15;;;26.58;;
84523;SDS011;74765;44.538;18.668;2024-01-30T11:25:16;48.38;;;20.80;;
84523;SDS011;74765;44.538;18.668;2024-01-30T11:27:50;29.17;;;12.40;;
84523;SDS011;74765;44.538;18.668;2024-01-30T11:30:26;33.95;;;16.13;;
84523;SDS011;74765;44.538;18.668;2024-01-30T11:35:37;18.75;;;9.00;;
84523;SDS011;74765;44.538;18.668;2024-01-30T11:38:10;16.90;;;8.75;;
84523;SDS011;74765;44.538;18.668;2024-01-30T11:40:38;27.73;;;12.40;;
84523;SDS011;74765;44.538;18.668;2024-01-30T11:43:06;18.05;;;10.05;;
84523;SDS011;74765;44.538;18.668;2024-01-30T11:45:33;23.23;;;11.45;;
84523;SDS011;74765;44.538;18.668;2024-01-30T11:47:59;19.58;;;10.15;;
84523;SDS011;74765;44.538;18.668;2024-01-30T11:50:31;36.00;;;13.77;;
84523;SDS011;74765;44.538;18.668;2024-01-30T11:53:01;23.52;;;12.27;;
84523;SDS011;74765;44.538;18.668;2024-01-30T11:55:27;19.90;;;9.98;;
84523;SDS011;74765;44.538;18.668;2024-01-30T11:57:55;22.17;;;11.77;;
84523;SDS011;74765;44.538;18.668;2024-01-30T12:00:21;20.20;;;11.15;;
84523;SDS011;74765;44.538;18.668;2024-01-30T12:02:51;16.05;;;8.07;;
84523;SDS011;74765;44.538;18.668;2024-01-30T12:05:24;19.20;;;10.65;;
84523;SDS011;74765;44.538;18.668;2024-01-30T12:07:50;21.90;;;10.20;;
84523;SDS011;74765;44.538;18.668;2024-01-30T12:10:16;18.60;;;10.30;;
84523;SDS011;74765;44.538;18.668;2024-01-30T12:12:46;24.30;;;11.32;;
84523;SDS011;74765;44.538;18.668;2024-01-30T12:15:14;15.25;;;8.73;;
84523;SDS011;74765;44.538;18.668;2024-01-30T12:17:40;19.75;;;9.20;;
84523;SDS011;74765;44.538;18.668;2024-01-30T12:20:10;15.23;;;9.85;;
84523;SDS011;74765;44.538;18.668;2024-01-30T12:22:41;25.20;;;11.50;;
84523;SDS011;74765;44.538;18.668;2024-01-30T12:25:08;14.57;;;8.02;;
84523;SDS011;74765;44.538;18.668;2024-01-30T12:27:36;14.68;;;8.43;;
84523;SDS011;74765;44.538;18.668;2024-01-30T12:30:08;18.85;;;8.32;;
84523;SDS011;74765;44.538;18.668;2024-01-30T12:32:44;14.63;;;8.50;;
84523;SDS011;74765;44.538;18.668;2024-01-30T12:37:37;15.18;;;7.72;;
84523;SDS011;74765;44.538;18.668;2024-01-30T12:40:03;17.10;;;8.77;;
84523;SDS011;74765;44.538;18.668;2024-01-30T12:42:31;17.73;;;8.77;;
84523;SDS011;74765;44.538;18.668;2024-01-30T12:44:57;16.48;;;8.68;;
84523;SDS011;74765;44.538;18.668;2024-01-30T12:47:24;19.08;;;10.07;;
84523;SDS011;74765;44.538;18.668;2024-01-30T12:49:50;13.82;;;7.55;;
84523;SDS011;74765;44.538;18.668;2024-01-30T12:52:19;10.95;;;7.20;;
84523;SDS011;74765;44.538;18.668;2024-01-30T12:54:46;11.95;;;7.40;;
84523;SDS011;74765;44.538;18.668;2024-01-30T12:57:12;14.82;;;7.45;;
84523;SDS011;74765;44.538;18.668;2024-01-30T12:59:37;18.70;;;9.88;;
84523;SDS011;74765;44.538;18.668;2024-01-30T13:02:04;28.63;;;13.43;;
84523;SDS011;74765;44.538;18.668;2024-01-30T13:04:30;19.15;;;9.80;;
84523;SDS011;74765;44.538;18.668;2024-01-30T13:06:56;22.67;;;11.32;;
84523;SDS011;74765;44.538;18.668;2024-01-30T13:09:23;16.88;;;8.05;;
84523;SDS011;74765;44.538;18.668;2024-01-30T13:11:49;17.92;;;9.93;;
84523;SDS011;74765;44.538;18.668;2024-01-30T13:14:16;12.90;;;7.90;;
84523;SDS011;74765;44.538;18.668;2024-01-30T13:16:42;15.55;;;8.77;;
84523;SDS011;74765;44.538;18.668;2024-01-30T13:19:08;15.18;;;8.40;;
84523;SDS011;74765;44.538;18.668;2024-01-30T13:21:34;12.23;;;6.30;;
84523;SDS011;74765;44.538;18.668;2024-01-30T13:24:00;10.80;;;6.72;;
84523;SDS011;74765;44.538;18.668;2024-01-30T13:26:26;15.23;;;7.15;;
84523;SDS011;74765;44.538;18.668;2024-01-30T13:28:52;28.92;;;13.13;;
84523;SDS011;74765;44.538;18.668;2024-01-30T13:31:18;37.40;;;16.95;;
84523;SDS011;74765;44.538;18.668;2024-01-30T13:33:44;33.38;;;16.08;;
84523;SDS011;74765;44.538;18.668;2024-01-30T13:36:11;26.17;;;14.38;;
84523;SDS011;74765;44.538;18.668;2024-01-30T13:38:37;24.20;;;10.82;;
84523;SDS011;74765;44.538;18.668;2024-01-30T13:41:04;31.75;;;16.60;;
84523;SDS011;74765;44.538;18.668;2024-01-30T13:43:30;46.00;;;22.88;;
84523;SDS011;74765;44.538;18.668;2024-01-30T13:45:56;24.48;;;12.32;;
84523;SDS011;74765;44.538;18.668;2024-01-30T13:48:22;36.30;;;19.23;;
84523;SDS011;74765;44.538;18.668;2024-01-30T13:50:48;13.20;;;7.35;;
84523;SDS011;74765;44.538;18.668;2024-01-30T13:53:13;16.23;;;8.93;;
84523;SDS011;74765;44.538;18.668;2024-01-30T13:55:39;26.50;;;13.05;;
84523;SDS011;74765;44.538;18.668;2024-01-30T13:58:06;28.65;;;13.80;;
84523;SDS011;74765;44.538;18.668;2024-01-30T14:00:33;28.85;;;14.80;;
84523;SDS011;74765;44.538;18.668;2024-01-30T14:02:59;34.83;;;16.17;;
84523;SDS011;74765;44.538;18.668;2024-01-30T14:05:25;40.17;;;16.95;;
84523;SDS011;74765;44.538;18.668;2024-01-30T14:10:21;20.17;;;10.10;;
84523;SDS011;74765;44.538;18.668;2024-01-30T14:12:47;28.80;;;15.77;;
84523;SDS011;74765;44.538;18.668;2024-01-30T14:15:13;21.02;;;12.48;;
84523;SDS011;74765;44.538;18.668;2024-01-30T14:17:46;14.88;;;9.02;;